Time;durP1;ratioP1;P1;durP2;ratioP2;P2;SDS_P1;SDS_P2;PMS_P1;PMS_P2;Temp;Humidity;BMP_temperature;BMP_pressure;BME280_temperature;BME280_humidity;BME280_pressure;Samples;Min_cycle;Max_cycle;Signal;HPM_P1;HPM_P2
2020/12/17 00:02:05;;;;;;;4.32;3.33;;;;;;;27.23;31.36;96802.38;4945250;28;20050;-41
2020/12/17 00:04:31;;;;;;;4.22;3.05;;;;;;;27.21;31.62;96799.84;4943354;28;20108;-41
2020/12/17 00:06:56;;;;;;;5.38;3.03;;;;;;;27.20;31.46;96800.78;4948517;28;20054;-39
2020/12/17 00:09:22;;;;;;;4.63;3.10;;;;;;;27.18;31.38;96802.66;4943584;28;20170;-41
2020/12/17 00:11:47;;;;;;;4.32;2.90;;;;;;;27.18;31.61;96804.41;4949212;28;20047;-42
2020/12/17 00:14:14;;;;;;;4.70;3.00;;;;;;;27.19;31.49;96800.88;4947767;28;20064;-39
2020/12/17 00:16:39;;;;;;;4.78;3.00;;;;;;;27.18;31.40;96801.78;4947954;28;20788;-34
2020/12/17 00:19:05;;;;;;;4.32;3.00;;;;;;;27.17;31.59;96797.47;4947228;28;20043;-32
2020/12/17 00:21:31;;;;;;;5.07;3.33;;;;;;;27.18;31.48;96791.25;4950238;28;20489;-36
2020/12/17 00:23:56;;;;;;;4.28;2.80;;;;;;;27.17;31.52;96789.56;4951575;28;20650;-33
2020/12/17 00:26:25;;;;;;;3.75;2.72;;;;;;;27.18;31.60;96796.53;4961547;28;20070;-35
2020/12/17 00:28:54;;;;;;;3.75;2.72;;;;;;;27.19;31.46;96792.97;4946722;28;20093;-34
2020/12/17 00:31:19;;;;;;;4.50;2.85;;;;;;;27.20;31.44;96789.41;4947493;28;20057;-35
2020/12/17 00:33:46;;;;;;;3.72;2.70;;;;;;;27.19;31.50;96793.81;4951596;28;20039;-35
2020/12/17 00:36:15;;;;;;;3.83;2.50;;;;;;;27.21;31.47;96789.31;4951088;28;20062;-36
2020/12/17 00:38:41;;;;;;;4.45;2.92;;;;;;;27.22;31.48;96787.50;4948655;28;20030;-32
2020/12/17 00:41:07;;;;;;;4.13;2.70;;;;;;;27.21;31.47;96788.47;4949883;28;20301;-34
2020/12/17 00:43:32;;;;;;;5.25;2.88;;;;;;;27.21;31.45;96789.31;4948910;28;20504;-35
2020/12/17 00:45:58;;;;;;;3.63;2.40;;;;;;;27.21;31.41;96791.09;4953792;28;20428;-35
2020/12/17 00:48:23;;;;;;;3.42;2.60;;;;;;;27.21;31.46;96788.47;4950565;28;20050;-33
2020/12/17 00:50:49;;;;;;;3.75;2.60;;;;;;;27.22;31.41;96798.03;4949218;28;20113;-39
2020/12/17 00:53:15;;;;;;;2.97;2.42;;;;;;;27.21;31.31;96793.72;4950820;28;20039;-33
2020/12/17 00:55:40;;;;;;;3.80;2.50;;;;;;;27.20;31.30;96790.25;4951322;28;20058;-35
2020/12/17 00:58:06;;;;;;;3.45;2.72;;;;;;;27.19;31.52;96787.72;4948797;28;20054;-36
2020/12/17 01:00:32;;;;;;;3.20;2.50;;;;;;;27.17;31.30;96784.31;4951049;28;20794;-34
2020/12/17 01:02:57;;;;;;;3.42;2.40;;;;;;;27.13;31.29;96781.88;4952068;28;20051;-37
2020/12/17 01:05:24;;;;;;;3.95;2.63;;;;;;;27.10;31.39;96787.31;4965319;28;20058;-35
2020/12/17 01:07:50;;;;;;;3.83;2.50;;;;;;;27.10;31.36;96792.59;4950708;28;20089;-33
2020/12/17 01:10:15;;;;;;;3.67;2.70;;;;;;;27.08;31.32;96791.81;4948810;28;20685;-33
2020/12/17 01:12:42;;;;;;;2.97;2.40;;;;;;;27.03;31.23;96787.78;4952770;28;20066;-33
2020/12/17 01:15:08;;;;;;;3.55;2.30;;;;;;;27.00;31.41;96796.66;4951332;28;20754;-33
2020/12/17 01:17:34;;;;;;;3.92;2.60;;;;;;;26.96;31.48;96792.53;4948365;28;20544;-33
2020/12/17 01:20:00;;;;;;;3.72;2.45;;;;;;;26.94;31.45;96799.63;4949196;28;20038;-35
2020/12/17 01:22:25;;;;;;;4.97;2.60;;;;;;;26.91;31.56;96784.00;4946206;28;20051;-34
2020/12/17 01:24:52;;;;;;;2.92;2.40;;;;;;;26.87;31.51;96792.09;4949178;28;20122;-36
2020/12/17 01:27:17;;;;;;;3.35;2.58;;;;;;;26.90;31.47;96798.09;4946880;28;20046;-35
2020/12/17 01:29:43;;;;;;;3.28;2.40;;;;;;;26.90;31.59;96792.84;4950987;28;20042;-34
2020/12/17 01:32:09;;;;;;;2.72;2.30;;;;;;;26.90;31.54;96798.97;4948365;28;20663;-36
2020/12/17 01:34:35;;;;;;;2.85;2.25;;;;;;;26.92;31.60;96802.34;4952161;28;20404;-33
2020/12/17 01:37:00;;;;;;;2.83;2.10;;;;;;;26.94;31.62;96804.88;4947206;28;20500;-34
2020/12/17 01:39:26;;;;;;;2.13;1.90;;;;;;;26.94;31.53;96799.63;4944338;28;20055;-34
2020/12/17 01:41:52;;;;;;;4.60;2.47;;;;;;;26.95;31.50;96801.34;4945484;28;20027;-36
2020/12/17 01:44:18;;;;;;;2.63;2.03;;;;;;;26.96;31.74;96803.91;4935316;28;20057;-35
2020/12/17 01:46:43;;;;;;;3.20;2.15;;;;;;;26.96;31.57;96803.91;4943885;28;20120;-35
2020/12/17 01:49:09;;;;;;;2.33;2.10;;;;;;;27.00;31.44;96812.44;4952583;28;20046;-35
2020/12/17 01:51:35;;;;;;;2.42;2.10;;;;;;;27.00;31.72;96810.66;4947265;28;20026;-35
2020/12/17 01:54:01;;;;;;;2.95;1.80;;;;;;;27.00;31.50;96815.06;4949145;28;20401;-35
2020/12/17 01:56:27;;;;;;;3.47;2.38;;;;;;;27.01;31.36;96811.53;4946400;28;20058;-35
2020/12/17 01:59:11;;;;;;;2.63;2.20;;;;;;;27.01;31.39;96814.16;4949863;28;20125;-33
2020/12/17 02:01:37;;;;;;;2.83;2.10;;;;;;;26.97;31.41;96807.38;4946281;28;20070;-32
2020/12/17 02:04:03;;;;;;;4.13;2.20;;;;;;;26.95;31.37;96822.38;4949354;28;20038;-33
2020/12/17 02:06:29;;;;;;;2.95;2.08;;;;;;;26.95;31.31;96830.28;4963971;28;20762;-35
2020/12/17 02:08:55;;;;;;;3.63;2.15;;;;;;;26.95;31.37;96832.91;4948378;28;20045;-33
2020/12/17 02:11:20;;;;;;;3.47;2.20;;;;;;;26.93;31.23;96832.13;4947498;28;20039;-34
2020/12/17 02:13:46;;;;;;;2.70;1.90;;;;;;;26.88;31.43;96830.59;4951564;28;20787;-34
2020/12/17 02:16:12;;;;;;;5.82;2.10;;;;;;;26.83;31.37;96830.03;4952702;28;20082;-34
2020/12/17 02:18:37;;;;;;;2.33;1.90;;;;;;;26.80;31.72;96832.81;4950474;28;20062;-34
2020/12/17 02:21:03;;;;;;;2.22;1.98;;;;;;;26.79;31.58;96839.03;4946726;28;20042;-35
2020/12/17 02:23:28;;;;;;;2.42;2.20;;;;;;;26.78;31.67;96837.34;4947645;28;20055;-34
2020/12/17 02:25:54;;;;;;;2.50;2.03;;;;;;;26.77;31.50;96834.78;4947893;28;21083;-35
2020/12/17 02:28:20;;;;;;;2.00;1.80;;;;;;;26.75;31.42;96834.88;4949014;28;20089;-35
2020/12/17 02:30:46;;;;;;;2.10;1.80;;;;;;;26.73;31.51;96834.94;4947955;28;20527;-33
2020/12/17 02:33:11;;;;;;;2.65;1.83;;;;;;;26.71;31.50;96835.97;4949242;28;20039;-34
2020/12/17 02:35:37;;;;;;;2.50;1.90;;;;;;;26.72;31.64;96837.66;4950512;28;20404;-33
2020/12/17 02:38:03;;;;;;;3.42;2.03;;;;;;;26.72;31.61;96840.28;4950813;28;20071;-35
2020/12/17 02:40:29;;;;;;;2.15;1.85;;;;;;;26.75;31.48;96840.13;4947655;28;20045;-35
2020/12/17 02:42:54;;;;;;;1.90;1.67;;;;;;;26.76;31.72;96838.34;4948476;28;21100;-43
2020/12/17 02:45:19;;;;;;;3.03;1.92;;;;;;;26.73;31.40;96839.34;4949506;28;20039;-35
2020/12/17 02:47:45;;;;;;;3.63;1.90;;;;;;;26.72;31.53;96835.88;4950222;28;20743;-34
2020/12/17 02:50:12;;;;;;;1.88;1.60;;;;;;;26.75;31.73;96829.59;4949212;28;20039;-39
2020/12/17 02:52:37;;;;;;;2.75;1.70;;;;;;;26.76;31.55;96828.66;4947835;28;20855;-34
2020/12/17 02:55:03;;;;;;;1.83;1.63;;;;;;;26.78;31.63;96833.84;4947961;28;20039;-37
2020/12/17 02:57:29;;;;;;;2.72;1.90;;;;;;;26.80;31.55;96824.94;4951770;28;20046;-37
2020/12/17 02:59:54;;;;;;;2.30;1.60;;;;;;;26.81;31.49;96826.63;4949814;28;20035;-34
2020/12/17 03:02:20;;;;;;;2.03;1.83;;;;;;;26.83;31.51;96823.91;4944576;28;20426;-33
2020/12/17 03:04:45;;;;;;;1.77;1.50;;;;;;;26.85;31.45;96828.13;4947552;28;20465;-35
2020/12/17 03:07:11;;;;;;;1.75;1.60;;;;;;;26.86;31.36;96835.09;4950695;28;20424;-35
2020/12/17 03:09:37;;;;;;;2.45;1.70;;;;;;;26.87;31.47;96831.53;4946035;28;20520;-33
2020/12/17 03:12:02;;;;;;;1.70;1.48;;;;;;;26.86;31.29;96824.56;4943318;28;20048;-33
2020/12/17 03:14:28;;;;;;;2.47;1.65;;;;;;;26.85;31.38;96822.88;4946183;28;20038;-33
2020/12/17 03:16:53;;;;;;;2.03;1.83;;;;;;;26.85;31.44;96838.66;4949433;28;20039;-35
2020/12/17 03:19:19;;;;;;;2.22;1.67;;;;;;;26.86;31.47;96829.81;4945678;28;20046;-34
2020/12/17 03:21:44;;;;;;;1.98;1.50;;;;;;;26.87;31.25;96836.81;4946994;28;20160;-33
2020/12/17 03:24:10;;;;;;;2.33;1.65;;;;;;;26.88;31.13;96833.22;4946583;28;23248;-33
2020/12/17 03:26:36;;;;;;;2.03;1.67;;;;;;;26.88;31.44;96833.22;4942164;28;20078;-32
2020/12/17 03:29:01;;;;;;;2.83;1.70;;;;;;;26.88;31.48;96832.38;4945589;28;20049;-34
2020/12/17 03:31:27;;;;;;;1.55;1.42;;;;;;;26.86;31.40;96835.09;4943271;28;20086;-33
2020/12/17 03:33:52;;;;;;;1.92;1.55;;;;;;;26.86;31.37;96837.72;4948015;28;20038;-33
2020/12/17 03:36:18;;;;;;;1.88;1.42;;;;;;;26.85;31.45;96843.91;4949381;28;20330;-35
2020/12/17 03:38:44;;;;;;;1.52;1.35;;;;;;;26.85;31.49;96835.19;4961551;28;20058;-33
2020/12/17 03:41:09;;;;;;;1.42;1.33;;;;;;;26.83;31.39;96840.53;4946369;28;20058;-37
2020/12/17 03:43:35;;;;;;;1.75;1.50;;;;;;;26.83;31.33;96839.69;4942084;28;20280;-33
2020/12/17 03:46:00;;;;;;;1.48;1.30;;;;;;;26.81;31.21;96839.75;4950835;28;20113;-34
2020/12/17 03:48:26;;;;;;;4.25;1.40;;;;;;;26.83;31.36;96847.56;4948370;28;20047;-34
2020/12/17 03:50:52;;;;;;;1.90;1.33;;;;;;;26.82;31.40;96838.00;4954225;28;20520;-35
2020/12/17 03:53:17;;;;;;;2.10;1.55;;;;;;;26.80;31.41;96848.59;4943045;28;20819;-34
2020/12/17 03:55:45;;;;;;;1.63;1.50;;;;;;;26.80;31.40;96839.84;4952627;28;20047;-33
2020/12/17 03:58:10;;;;;;;4.03;1.88;;;;;;;26.79;31.37;96844.28;4949433;28;20050;-34
2020/12/17 04:00:36;;;;;;;1.63;1.50;;;;;;;26.80;31.41;96848.59;4946397;28;20035;-33
2020/12/17 04:03:01;;;;;;;1.60;1.35;;;;;;;26.78;31.40;96837.34;4947422;28;20042;-35
2020/12/17 04:05:29;;;;;;;1.42;1.25;;;;;;;26.79;31.42;96841.66;4942695;28;22016;-33
2020/12/17 04:07:54;;;;;;;1.80;1.58;;;;;;;26.79;31.50;96839.03;4948965;28;20094;-34
2020/12/17 04:10:20;;;;;;;1.85;1.30;;;;;;;26.79;31.62;96843.41;4941292;28;20039;-33
2020/12/17 04:12:47;;;;;;;1.42;1.30;;;;;;;26.81;31.44;96837.13;4962616;28;20168;-34
2020/12/17 04:15:12;;;;;;;1.30;1.20;;;;;;;26.81;31.37;96844.19;4947650;28;20054;-37
2020/12/17 04:17:38;;;;;;;1.52;1.30;;;;;;;26.81;31.44;96852.09;4959133;28;20046;-35
2020/12/17 04:20:04;;;;;;;2.13;1.63;;;;;;;26.79;31.38;96844.28;4946163;28;20599;-34
2020/12/17 04:22:30;;;;;;;2.15;1.77;;;;;;;26.80;31.35;96840.72;4946350;28;20412;-33
2020/12/17 04:24:56;;;;;;;2.70;1.77;;;;;;;26.79;31.46;96852.16;4945250;28;20130;-34
2020/12/17 04:27:22;;;;;;;1.70;1.42;;;;;;;26.79;31.44;96844.28;4945114;28;20499;-34
2020/12/17 04:29:48;;;;;;;2.42;1.23;;;;;;;26.79;31.33;96851.31;4950446;28;20051;-34
2020/12/17 04:32:14;;;;;;;1.98;1.67;;;;;;;26.79;31.42;96844.28;4951411;28;20039;-33
2020/12/17 04:34:41;;;;;;;4.53;1.38;;;;;;;26.80;31.57;96848.59;4947355;28;20527;-34
2020/12/17 04:37:06;;;;;;;2.53;1.52;;;;;;;26.79;31.40;96846.91;4945279;28;20053;-34
2020/12/17 04:39:32;;;;;;;1.52;1.42;;;;;;;26.80;31.38;96843.34;4943372;28;20043;-34
2020/12/17 04:41:58;;;;;;;2.67;1.52;;;;;;;26.80;31.37;96845.09;4946909;28;20077;-37
2020/12/17 04:44:25;;;;;;;2.50;1.52;;;;;;;26.79;31.45;96844.28;4949212;28;20043;-33
2020/12/17 04:47:03;;;;;;;1.50;1.30;;;;;;;26.79;31.34;96849.53;4966185;28;20050;-35
2020/12/17 04:49:46;;;;;;;1.73;1.33;;;;;;;26.79;31.33;96851.31;4947569;28;20080;-36
2020/12/17 04:52:13;;;;;;;1.77;1.15;;;;;;;26.79;31.33;96846.91;4944925;28;20129;-33
2020/12/17 04:54:38;;;;;;;1.90;1.13;;;;;;;26.80;31.44;96839.84;4960403;28;20599;-33
2020/12/17 04:57:14;;;;;;;1.52;1.40;;;;;;;26.79;31.46;96839.03;4930837;28;20051;-35
2020/12/17 04:59:49;;;;;;;1.73;1.35;;;;;;;26.80;31.37;96848.59;4944717;28;20074;-35
2020/12/17 05:02:15;;;;;;;2.38;1.70;;;;;;;26.79;31.34;96852.16;4949346;28;20130;-33
2020/12/17 05:04:42;;;;;;;2.08;1.30;;;;;;;26.80;31.30;96860.88;4946621;28;20042;-33
2020/12/17 05:07:12;;;;;;;1.73;1.42;;;;;;;26.80;31.27;96867.00;4946817;28;20047;-35
2020/12/17 05:09:38;;;;;;;2.13;1.40;;;;;;;26.80;31.20;96872.25;4947771;28;20053;-36
2020/12/17 05:12:04;;;;;;;1.52;1.30;;;;;;;26.78;31.11;96866.25;4941944;28;20030;-35
2020/12/17 05:14:30;;;;;;;1.95;1.60;;;;;;;26.78;31.23;96868.88;4947519;28;20055;-34
2020/12/17 05:16:56;;;;;;;1.55;1.30;;;;;;;26.78;31.35;96875.91;4964739;28;20587;-36
2020/12/17 05:19:23;;;;;;;1.35;1.10;;;;;;;26.77;31.35;96882.09;4946629;28;20148;-35
2020/12/17 05:21:48;;;;;;;1.63;1.27;;;;;;;26.76;31.24;96880.41;4950287;28;20053;-42
2020/12/17 05:24:14;;;;;;;2.63;1.67;;;;;;;26.76;31.28;96878.63;4950385;28;20039;-35
2020/12/17 05:26:40;;;;;;;2.03;1.52;;;;;;;26.76;31.38;96886.50;4947847;28;20758;-34
2020/12/17 05:29:06;;;;;;;1.58;1.48;;;;;;;26.75;31.36;96890.06;4949171;28;20120;-35
2020/12/17 05:31:35;;;;;;;1.75;1.30;;;;;;;26.74;31.41;96891.84;4951530;28;20544;-35
2020/12/17 05:34:03;;;;;;;1.88;1.42;;;;;;;26.75;31.43;96892.69;4948564;28;20051;-33
2020/12/17 05:36:28;;;;;;;2.58;1.80;;;;;;;26.76;31.29;96897.03;4946786;28;20030;-34
2020/12/17 05:39:26;;;;;;;1.42;1.27;;;;;;;26.76;31.32;96897.03;4952271;28;20579;-35
2020/12/17 05:41:53;;;;;;;2.05;1.52;;;;;;;26.76;31.20;96899.66;4944472;28;20661;-37
2020/12/17 05:44:19;;;;;;;1.25;1.15;;;;;;;26.74;31.31;96905.00;4950637;28;20049;-33
2020/12/17 05:46:46;;;;;;;1.30;1.20;;;;;;;26.74;31.26;96914.69;4946458;28;20031;-33
2020/12/17 05:49:14;;;;;;;3.20;1.33;;;;;;;26.73;31.47;96918.22;4947993;28;20035;-35
2020/12/17 05:51:40;;;;;;;1.63;1.40;;;;;;;26.73;31.36;96918.22;4944285;28;20301;-33
2020/12/17 05:54:09;;;;;;;1.70;1.52;;;;;;;26.72;31.32;96917.38;4949416;28;20548;-35
2020/12/17 05:56:35;;;;;;;1.58;1.42;;;;;;;26.72;31.33;96916.53;4951863;28;20396;-36
2020/12/17 05:59:01;;;;;;;1.98;1.38;;;;;;;26.71;31.29;96920.09;4945591;28;20049;-36
2020/12/17 06:01:27;;;;;;;2.63;1.58;;;;;;;26.72;31.34;96922.63;4948925;28;20113;-34
2020/12/17 06:03:52;;;;;;;1.65;1.50;;;;;;;26.73;31.29;96928.72;4951157;28;20065;-35
2020/12/17 06:06:19;;;;;;;1.85;1.35;;;;;;;26.72;31.44;96927.03;4934133;28;20754;-36
2020/12/17 06:08:44;;;;;;;2.70;1.50;;;;;;;26.71;31.43;96931.47;4945838;28;20467;-34
2020/12/17 06:11:12;;;;;;;1.73;1.58;;;;;;;26.71;31.36;96934.09;4943463;28;20047;-34
2020/12/17 06:13:39;;;;;;;1.95;1.38;;;;;;;26.70;31.37;96936.81;4949583;28;20050;-36
2020/12/17 06:16:06;;;;;;;2.05;1.30;;;;;;;26.69;31.43;96938.56;4947044;28;20033;-33
2020/12/17 06:18:45;;;;;;;1.80;1.60;;;;;;;26.70;31.42;96944.69;4948064;28;21563;-34
2020/12/17 06:21:11;;;;;;;2.05;1.50;;;;;;;26.70;31.35;96945.50;4932780;28;20054;-35
2020/12/17 06:23:37;;;;;;;1.38;1.27;;;;;;;26.70;31.37;96944.69;4945638;28;20052;-34
2020/12/17 06:26:07;;;;;;;1.92;1.40;;;;;;;26.68;31.50;96936.03;4945311;28;20429;-36
2020/12/17 06:28:45;;;;;;;1.50;1.40;;;;;;;26.70;31.40;96944.69;4964436;28;20174;-32
2020/12/17 06:31:17;;;;;;;2.03;1.50;;;;;;;26.70;31.46;96949.94;4945663;28;20484;-35
2020/12/17 06:33:43;;;;;;;1.75;1.30;;;;;;;26.70;31.35;96949.94;4946090;28;20051;-35
2020/12/17 06:36:12;;;;;;;1.55;1.30;;;;;;;26.69;31.45;96949.09;4946047;28;20043;-34
2020/12/17 06:38:37;;;;;;;1.27;1.13;;;;;;;26.69;31.36;96956.16;4960949;28;20452;-39
2020/12/17 06:41:16;;;;;;;1.60;1.40;;;;;;;26.70;31.44;96965.72;4948315;28;20058;-33
2020/12/17 06:43:42;;;;;;;1.45;1.27;;;;;;;26.70;31.37;96961.28;4949566;28;20130;-32
2020/12/17 06:46:31;;;;;;;2.00;1.35;;;;;;;26.69;31.51;96970.13;4947666;28;20039;-35
2020/12/17 06:48:56;;;;;;;2.00;1.25;;;;;;;26.69;31.39;96974.53;4951788;28;20035;-35
2020/12/17 06:51:28;;;;;;;1.30;1.15;;;;;;;26.69;31.56;96977.16;4948770;28;20101;-35
2020/12/17 06:53:54;;;;;;;1.30;1.20;;;;;;;26.69;31.48;96980.63;4951449;28;20046;-36
2020/12/17 06:56:25;;;;;;;1.40;1.08;;;;;;;26.68;31.35;96975.44;4944507;28;20050;-35
2020/12/17 06:59:09;;;;;;;;;;;;;;;26.67;31.51;96973.75;4946347;28;20467;-34
2020/12/17 07:01:36;;;;;;;2.35;1.30;;;;;;;26.64;31.60;96985.28;4942565;28;20030;-35
2020/12/17 07:04:02;;;;;;;4.07;1.38;;;;;;;26.59;31.56;96985.53;4949726;28;20065;-33
2020/12/17 07:06:28;;;;;;;4.47;1.50;;;;;;;26.59;31.65;97003.91;4944789;28;20039;-37
2020/12/17 07:08:55;;;;;;;8.43;1.63;;;;;;;26.59;31.61;97001.28;4945551;28;20062;-36
2020/12/17 07:11:48;;;;;;;7.32;2.47;;;;;;;26.56;28.16;97004.09;4946853;28;20568;-35
2020/12/17 07:14:26;;;;;;;5.82;1.60;;;;;;;26.56;31.09;97014.63;4947731;28;20399;-35
2020/12/17 07:16:57;;;;;;;8.23;2.45;;;;;;;26.53;27.90;97014.78;4947655;28;20047;-35
2020/12/17 07:19:23;;;;;;;9.75;2.50;;;;;;;26.45;26.55;97009.94;4951594;28;20093;-36
2020/12/17 07:21:50;;;;;;;4.55;2.65;;;;;;;26.33;26.87;97011.41;4954700;28;20046;-33
2020/12/17 07:24:27;;;;;;;4.43;2.70;;;;;;;26.21;26.82;97012.03;4953587;28;20050;-36
2020/12/17 07:26:53;;;;;;;6.18;2.60;;;;;;;26.05;26.89;97018.03;4952847;28;20069;-35
2020/12/17 07:29:19;;;;;;;5.35;2.50;;;;;;;25.91;26.34;97026.63;4963206;28;20146;-35
2020/12/17 07:31:44;;;;;;;4.95;2.40;;;;;;;25.80;27.35;97019.28;4945510;28;20061;-36
2020/12/17 07:34:16;;;;;;;3.22;2.00;;;;;;;25.69;27.53;97032.06;4949421;28;23323;-35
2020/12/17 07:36:46;;;;;;;3.85;2.38;;;;;;;25.59;26.59;97030.84;4950825;28;20050;-33
2020/12/17 07:39:11;;;;;;;4.78;2.40;;;;;;;25.35;27.08;97012.72;4948835;28;20042;-35
2020/12/17 07:41:37;;;;;;;5.95;2.60;;;;;;;25.42;26.72;97040.31;4947901;28;20042;-34
2020/12/17 07:44:03;;;;;;;6.10;2.15;;;;;;;25.35;27.09;97044.19;4951148;28;21086;-37
2020/12/17 07:46:41;;;;;;;6.93;2.70;;;;;;;25.29;27.18;97051.41;4947921;28;20724;-34
2020/12/17 07:49:19;;;;;;;3.55;1.85;;;;;;;25.29;30.32;97051.41;4948487;28;20042;-35
2020/12/17 07:51:45;;;;;;;2.92;1.70;;;;;;;25.40;30.88;97057.94;4949003;28;20454;-35
2020/12/17 07:54:11;;;;;;;6.38;1.80;;;;;;;25.48;31.36;97054.94;4947735;28;20043;-34
2020/12/17 07:56:37;;;;;;;2.42;1.67;;;;;;;25.62;31.25;97063.03;4950692;28;20724;-33
2020/12/17 07:59:05;;;;;;;1.83;1.40;;;;;;;25.73;31.33;97059.03;4947614;28;20072;-33
2020/12/17 08:01:30;;;;;;;3.75;1.33;;;;;;;25.83;31.26;97066.38;4947904;28;20046;-34
2020/12/17 08:03:56;;;;;;;4.57;1.75;;;;;;;25.93;31.27;97065.94;4951087;28;20046;-33
2020/12/17 08:06:23;;;;;;;3.13;1.50;;;;;;;25.95;31.32;97056.19;4946092;28;20536;-34
2020/12/17 08:08:56;;;;;;;1.92;1.23;;;;;;;25.98;31.39;97058.69;4947496;28;20050;-34
2020/12/17 08:11:22;;;;;;;4.22;1.90;;;;;;;26.01;31.32;97057.69;4962254;28;20047;-35
2020/12/17 08:13:56;;;;;;;6.55;1.58;;;;;;;26.02;31.39;97059.38;4948798;28;20614;-35
2020/12/17 08:16:21;;;;;;;2.10;1.50;;;;;;;26.05;31.44;97062.69;4964204;28;20051;-35
2020/12/17 08:18:52;;;;;;;3.90;1.60;;;;;;;26.07;31.31;97062.63;4964611;28;21304;-38
2020/12/17 08:21:18;;;;;;;6.13;1.35;;;;;;;26.12;31.30;97070.28;4962178;28;20031;-38
2020/12/17 08:23:45;;;;;;;8.38;1.70;;;;;;;26.14;30.87;97057.91;4951238;28;20043;-39
2020/12/17 08:26:12;;;;;;;8.18;1.45;;;;;;;26.17;31.07;97057.75;4951365;28;20038;-34
2020/12/17 08:28:39;;;;;;;8.65;1.30;;;;;;;26.21;31.21;97064.56;4946065;28;20094;-35
2020/12/17 08:31:11;;;;;;;7.13;1.33;;;;;;;26.23;31.03;97068.81;4947451;28;20050;-34
2020/12/17 08:34:01;;;;;;;11.13;1.50;;;;;;;26.25;31.20;97066.09;4947984;28;20058;-34
2020/12/17 08:36:27;;;;;;;5.13;1.50;;;;;;;26.27;31.10;97069.53;4948131;28;20574;-35
2020/12/17 08:38:54;;;;;;;3.22;1.73;;;;;;;26.28;31.24;97071.22;4951007;28;20059;-34
2020/12/17 08:41:20;;;;;;;4.90;1.50;;;;;;;26.29;31.22;97070.31;4949065;28;20043;-37
2020/12/17 08:43:46;;;;;;;5.03;1.25;;;;;;;26.33;31.17;97077.09;4968183;28;20785;-36
2020/12/17 08:46:14;;;;;;;4.97;1.33;;;;;;;26.34;31.29;97081.41;4964987;28;20066;-35
2020/12/17 08:48:39;;;;;;;8.82;1.95;;;;;;;26.35;29.25;97082.25;4960953;28;20044;-35
2020/12/17 08:51:06;;;;;;;12.80;3.20;;;;;;;26.01;21.82;97090.03;4941659;28;20142;-35
2020/12/17 08:53:35;;;;;;;7.97;3.13;;;;;;;25.45;21.28;97087.41;4953574;28;20075;-34
2020/12/17 08:56:04;;;;;;;11.88;3.55;;;;;;;24.92;24.06;97093.28;4954877;28;20035;-37
2020/12/17 08:58:30;;;;;;;7.97;2.60;;;;;;;24.77;25.74;97091.31;4952417;28;20531;-34
2020/12/17 09:00:56;;;;;;;14.07;3.13;;;;;;;24.71;27.13;97092.41;4950133;28;20052;-35
2020/12/17 09:03:23;;;;;;;7.07;3.17;;;;;;;24.40;28.36;97091.13;4949088;28;20508;-34
2020/12/17 09:06:04;;;;;;;8.70;3.08;;;;;;;24.11;29.08;97101.06;4955920;28;20057;-33
2020/12/17 09:08:30;;;;;;;9.02;2.70;;;;;;;23.97;29.95;97107.69;4954313;28;20137;-33
2020/12/17 09:10:56;;;;;;;5.20;2.67;;;;;;;23.96;30.42;97111.22;4952128;28;20054;-34
2020/12/17 09:13:22;;;;;;;15.98;2.88;;;;;;;24.05;30.83;97114.38;4956831;28;20057;-36
2020/12/17 09:16:01;;;;;;;6.63;2.47;;;;;;;24.20;30.87;97121.63;4952801;28;20035;-35
2020/12/17 09:18:28;;;;;;;5.15;2.50;;;;;;;24.39;30.49;97118.25;4954927;28;20539;-33
2020/12/17 09:21:07;;;;;;;6.40;2.72;;;;;;;24.60;30.48;97120.88;4950403;28;20460;-36
2020/12/17 09:23:35;;;;;;;10.75;2.58;;;;;;;24.78;30.50;97125.31;4953782;28;20156;-34
2020/12/17 09:26:11;;;;;;;7.65;2.60;;;;;;;24.96;30.35;97122.84;4950636;28;20038;-33
2020/12/17 09:28:38;;;;;;;5.18;2.60;;;;;;;25.14;30.18;97131.63;4950234;28;20053;-33
2020/12/17 09:31:20;;;;;;;3.85;2.20;;;;;;;25.31;30.24;97116.91;4950698;28;20050;-36
2020/12/17 09:33:47;;;;;;;4.90;2.35;;;;;;;25.48;29.94;97123.16;4956161;28;20043;-35
2020/12/17 09:36:18;;;;;;;6.03;2.28;;;;;;;25.64;29.89;97123.31;4950230;28;20045;-35
2020/12/17 09:38:43;;;;;;;4.75;2.28;;;;;;;25.77;30.22;97132.31;4931744;28;20047;-35
2020/12/17 09:41:36;;;;;;;14.32;4.45;;;;;;;25.88;26.16;97125.69;4912393;29;20078;-32
2020/12/17 09:54:45;;;;;;;6.50;2.47;;;;;;;25.56;28.79;97139.44;4940616;29;20816;-35
2020/12/17 09:57:14;;;;;;;8.80;2.20;;;;;;;25.61;28.92;97141.81;4932940;28;20046;-34
2020/12/17 09:59:42;;;;;;;6.07;2.50;;;;;;;25.70;29.02;97146.63;4933778;28;20047;-33
2020/12/17 10:02:12;;;;;;;4.78;2.10;;;;;;;25.78;29.17;97141.88;4929459;28;20043;-34
2020/12/17 10:04:39;;;;;;;7.25;2.30;;;;;;;25.89;29.06;97137.91;4932096;29;20802;-34
2020/12/17 10:07:06;;;;;;;3.38;1.83;;;;;;;25.98;29.10;97142.72;4930045;28;20122;-31
2020/12/17 10:09:32;;;;;;;4.55;2.13;;;;;;;26.07;28.98;97142.25;4927342;28;20051;-32
2020/12/17 10:11:59;;;;;;;3.08;1.50;;;;;;;26.18;28.95;97148.75;4914173;29;20039;-34
2020/12/17 10:14:26;;;;;;;5.97;2.30;;;;;;;26.25;28.88;97147.53;4913585;29;20605;-33
2020/12/17 10:16:55;;;;;;;8.35;1.88;;;;;;;26.35;28.94;97146.19;4924605;28;20086;-32
2020/12/17 10:19:23;;;;;;;29.55;2.95;;;;;;;26.46;28.46;97142.16;4936928;28;20051;-33
2020/12/17 10:21:48;;;;;;;15.82;3.00;;;;;;;26.51;28.42;97142.78;4932292;28;20445;-34
2020/12/17 10:24:15;;;;;;;21.77;2.80;;;;;;;26.58;28.43;97143.34;4930465;28;20048;-34
2020/12/17 10:26:41;;;;;;;11.18;2.58;;;;;;;26.58;28.49;97131.03;4928687;28;20039;-33
2020/12/17 10:29:06;;;;;;;22.65;2.63;;;;;;;26.64;28.79;97143.00;4926552;28;20409;-35
2020/12/17 10:31:32;;;;;;;13.00;2.53;;;;;;;26.75;28.99;97150.34;4930617;28;20074;-35
2020/12/17 10:33:59;;;;;;;7.70;2.60;;;;;;;26.81;28.86;97147.38;4934028;28;20047;-36
2020/12/17 10:36:24;;;;;;;7.43;2.20;;;;;;;26.88;28.72;97142.66;4932719;28;20051;-34
2020/12/17 10:38:51;;;;;;;7.05;2.33;;;;;;;26.95;28.92;97148.47;4933699;28;20508;-34
2020/12/17 10:41:18;;;;;;;6.53;2.80;;;;;;;27.01;28.84;97142.91;4931277;28;20035;-33
2020/12/17 10:43:43;;;;;;;6.43;2.47;;;;;;;27.05;28.76;97144.44;4934223;28;20043;-32
2020/12/17 10:46:10;;;;;;;5.85;2.15;;;;;;;27.09;28.81;97146.00;4932809;28;20044;-38
2020/12/17 10:48:38;;;;;;;13.75;2.80;;;;;;;27.12;29.01;97148.44;4933142;28;20054;-34
2020/12/17 10:51:04;;;;;;;6.57;2.58;;;;;;;27.16;28.95;97151.78;4930662;28;20067;-35
2020/12/17 10:53:30;;;;;;;8.80;2.75;;;;;;;27.19;28.99;97156.03;4935463;28;20063;-35
2020/12/17 10:55:56;;;;;;;5.80;2.53;;;;;;;27.22;29.03;97161.09;4930846;28;20043;-34
2020/12/17 10:58:21;;;;;;;30.38;3.72;;;;;;;27.22;28.25;97161.09;4922060;28;20162;-34
2020/12/17 11:00:47;;;;;;;14.60;3.35;;;;;;;27.20;28.79;97162.97;4927159;28;20035;-36
2020/12/17 11:03:14;;;;;;;6.93;2.60;;;;;;;27.20;29.34;97158.59;4931955;28;20047;-33
2020/12/17 11:05:40;;;;;;;5.47;2.40;;;;;;;27.24;29.32;97161.88;4929682;28;20043;-35
2020/12/17 11:08:06;;;;;;;10.50;3.50;;;;;;;27.27;29.14;97161.72;4926886;28;20056;-35
2020/12/17 11:10:31;;;;;;;6.78;1.80;;;;;;;27.29;28.37;97146.69;4931024;28;21372;-34
2020/12/17 11:12:57;;;;;;;4.20;1.88;;;;;;;27.28;28.56;97160.78;4931964;28;20584;-32
2020/12/17 11:15:22;;;;;;;7.70;2.08;;;;;;;27.27;28.80;97153.84;4933078;28;20591;-34
2020/12/17 11:17:49;;;;;;;4.55;1.92;;;;;;;27.26;28.62;97162.63;4936123;28;20039;-29
2020/12/17 11:20:17;;;;;;;6.28;2.25;;;;;;;27.21;28.81;97169.94;4935469;28;20066;-32
2020/12/17 11:22:42;;;;;;;8.05;2.33;;;;;;;27.17;28.97;97171.03;4933440;29;20126;-36
2020/12/17 11:25:08;;;;;;;7.78;2.22;;;;;;;27.12;28.90;97155.50;4932180;28;20046;-33
2020/12/17 11:27:33;;;;;;;6.57;2.63;;;;;;;27.10;29.11;97158.22;4942653;28;20588;-31
2020/12/17 11:29:59;;;;;;;8.88;3.35;;;;;;;27.08;29.16;97149.53;4933101;28;20084;-33
2020/12/17 11:32:25;;;;;;;8.32;3.40;;;;;;;27.07;29.28;97158.34;4931794;28;20584;-34
2020/12/17 11:34:50;;;;;;;11.20;4.10;;;;;;;27.11;29.26;97145.88;4932491;28;20054;-33
2020/12/17 11:37:16;;;;;;;11.48;3.58;;;;;;;27.13;29.27;97147.53;4934257;28;20044;-34
2020/12/17 11:39:42;;;;;;;7.50;3.17;;;;;;;27.18;29.29;97144.63;4934233;28;20039;-31
2020/12/17 11:42:08;;;;;;;7.45;3.33;;;;;;;27.18;29.19;97138.50;4933324;28;20122;-35
2020/12/17 11:44:34;;;;;;;8.77;3.47;;;;;;;27.17;29.18;97147.34;4926294;28;20063;-34
2020/12/17 11:46:59;;;;;;;7.70;2.97;;;;;;;27.17;28.92;97142.94;4924960;28;20068;-36